createdAt,value
2022-12-23T00:01:38.979Z,12.57
2022-12-23T00:04:07.741Z,13.38
2022-12-23T00:06:36.320Z,13.32
2022-12-23T00:09:05.353Z,11.68
2022-12-23T00:11:33.954Z,12.60
2022-12-23T00:14:22.155Z,14.30
2022-12-23T00:16:51.689Z,15.75
2022-12-23T00:19:20.414Z,15.68
2022-12-23T00:21:49.476Z,14.43
2022-12-23T00:24:18.059Z,13.07
2022-12-23T00:26:46.773Z,13.10
2022-12-23T00:29:16.771Z,16.00
2022-12-23T00:31:45.444Z,15.57
2022-12-23T00:34:14.116Z,13.45
2022-12-23T00:36:42.825Z,11.82
2022-12-23T00:39:31.095Z,13.65
2022-12-23T00:42:17.075Z,12.50
2022-12-23T00:44:47.188Z,15.02
2022-12-23T00:47:37.464Z,13.93
2022-12-23T00:50:09.893Z,11.52
2022-12-23T00:52:38.462Z,13.20
2022-12-23T00:55:08.131Z,11.52
2022-12-23T00:57:36.837Z,11.77
2022-12-23T01:00:08.590Z,12.48
2022-12-23T01:02:54.459Z,11.48
2022-12-23T01:08:17.323Z,10.85
2022-12-23T01:10:45.856Z,11.27
2022-12-23T01:13:14.392Z,12.25
2022-12-23T01:15:43.091Z,11.43
2022-12-23T01:18:11.705Z,10.88
2022-12-23T01:20:40.421Z,10.13
2022-12-23T01:23:09.008Z,11.15
2022-12-23T01:25:39.123Z,8.70
2022-12-23T01:28:07.610Z,9.77
2022-12-23T01:30:36.313Z,8.15
2022-12-23T01:33:05.027Z,7.60
2022-12-23T01:35:33.622Z,8.35
2022-12-23T01:38:02.146Z,7.88
2022-12-23T01:40:36.758Z,6.22
2022-12-23T01:43:05.757Z,6.50
2022-12-23T01:45:34.946Z,8.30
2022-12-23T01:48:10.223Z,8.20
2022-12-23T01:50:40.977Z,6.97
2022-12-23T01:53:13.648Z,5.93
2022-12-23T01:55:47.209Z,6.82
2022-12-23T01:58:19.943Z,7.22
2022-12-23T02:01:05.882Z,6.70
2022-12-23T02:03:46.761Z,7.60
2022-12-23T02:06:38.830Z,6.50
2022-12-23T02:09:19.772Z,7.65
2022-12-23T02:12:18.934Z,7.97
2022-12-23T02:15:18.110Z,5.15
2022-12-23T02:17:57.592Z,6.70
2022-12-23T02:20:58.882Z,7.80
2022-12-23T02:24:06.180Z,5.85
2022-12-23T02:27:01.714Z,5.22
2022-12-23T02:30:08.007Z,7.20
2022-12-23T02:32:54.302Z,6.47
2022-12-23T02:35:30.689Z,7.15
2022-12-23T02:38:05.802Z,5.65
2022-12-23T02:40:40.488Z,5.47
2022-12-23T02:43:17.621Z,6.57
2022-12-23T02:45:50.787Z,6.75
2022-12-23T02:48:27.391Z,6.50
2022-12-23T02:50:58.218Z,6.38
2022-12-23T02:53:32.035Z,5.88
2022-12-23T02:56:03.527Z,6.22
2022-12-23T02:58:35.797Z,5.68
2022-12-23T03:01:07.323Z,5.65
2022-12-23T03:03:39.226Z,5.97
2022-12-23T03:06:19.020Z,7.88
2022-12-23T03:08:48.870Z,5.50
2022-12-23T03:11:18.753Z,5.63
2022-12-23T03:14:17.743Z,7.75
2022-12-23T03:16:59.010Z,5.28
2022-12-23T03:22:10.432Z,6.05
2022-12-23T03:24:45.784Z,6.60
2022-12-23T03:27:21.510Z,6.78
2022-12-23T03:29:58.051Z,6.57
2022-12-23T03:32:32.130Z,6.85
2022-12-23T03:35:05.784Z,6.72
2022-12-23T03:37:39.143Z,7.60
2022-12-23T03:40:13.480Z,8.23
2022-12-23T03:42:46.774Z,7.50
2022-12-23T03:45:38.057Z,7.07
2022-12-23T03:48:15.394Z,6.80
2022-12-23T03:50:47.870Z,8.57
2022-12-23T03:53:21.369Z,8.90
2022-12-23T03:55:55.748Z,8.13
2022-12-23T03:58:35.879Z,10.23
2022-12-23T04:01:12.337Z,10.23
2022-12-23T04:03:49.737Z,11.63
2022-12-23T04:06:21.687Z,11.88
2022-12-23T04:08:51.293Z,12.32
2022-12-23T04:11:19.890Z,13.10
2022-12-23T04:13:49.441Z,14.38
2022-12-23T04:16:18.175Z,13.95
2022-12-23T04:18:46.763Z,14.10
2022-12-23T04:21:15.276Z,14.25
2022-12-23T04:23:45.269Z,14.93
2022-12-23T04:26:13.929Z,13.40
2022-12-23T04:28:42.426Z,11.43
2022-12-23T04:31:11.016Z,11.52
2022-12-23T04:33:39.529Z,14.75
2022-12-23T04:36:08.114Z,14.60
2022-12-23T04:38:36.564Z,11.32
2022-12-23T04:41:06.646Z,13.57
2022-12-23T04:43:35.214Z,12.55
2022-12-23T04:46:03.681Z,13.15
2022-12-23T04:48:32.210Z,14.23
2022-12-23T04:51:03.232Z,16.27
2022-12-23T04:56:00.141Z,16.60
2022-12-23T04:58:30.253Z,19.92
2022-12-23T05:01:06.959Z,19.10
2022-12-23T05:03:35.738Z,27.52
2022-12-23T05:06:04.276Z,25.85
2022-12-23T05:08:33.124Z,23.98
2022-12-23T05:11:01.663Z,26.83
2022-12-23T05:13:31.624Z,25.17
2022-12-23T05:16:00.113Z,28.17
2022-12-23T05:18:28.752Z,30.48
2022-12-23T05:20:57.193Z,31.08
2022-12-23T05:23:25.825Z,34.55
2022-12-23T05:25:55.551Z,38.53
2022-12-23T05:28:24.328Z,44.38
2022-12-23T05:31:01.208Z,40.38
2022-12-23T05:33:30.073Z,36.60
2022-12-23T05:35:59.196Z,44.15
2022-12-23T05:38:28.303Z,52.10
2022-12-23T05:40:56.857Z,43.03
2022-12-23T05:43:25.769Z,58.55
2022-12-23T05:45:54.422Z,46.80
2022-12-23T05:48:24.455Z,61.33
2022-12-23T05:50:54.285Z,60.97
2022-12-23T05:53:24.100Z,52.10
2022-12-23T05:55:52.637Z,55.28
2022-12-23T05:58:21.184Z,62.80
2022-12-23T06:00:49.868Z,56.15
2022-12-23T06:03:18.604Z,54.35
2022-12-23T06:05:51.766Z,53.80
2022-12-23T06:08:20.679Z,51.42
2022-12-23T06:10:49.302Z,59.63
2022-12-23T06:13:17.927Z,54.83
2022-12-23T06:15:46.372Z,62.97
2022-12-23T06:18:17.905Z,52.53
2022-12-23T06:20:53.326Z,63.88
2022-12-23T06:23:26.176Z,61.97
2022-12-23T06:26:06.429Z,52.80
2022-12-23T06:28:38.217Z,54.90
2022-12-23T06:31:11.871Z,58.95
2022-12-23T06:33:40.825Z,49.25
2022-12-23T06:36:16.389Z,54.03
2022-12-23T06:38:48.128Z,45.72
2022-12-23T06:41:17.211Z,43.63
2022-12-23T06:43:49.866Z,41.20
2022-12-23T06:46:21.559Z,58.58
2022-12-23T06:48:50.532Z,45.90
2022-12-23T06:51:26.530Z,50.03
2022-12-23T06:53:58.188Z,68.53
2022-12-23T06:56:34.815Z,60.33
2022-12-23T06:59:20.729Z,66.20
2022-12-23T07:01:52.152Z,50.55
2022-12-23T07:04:27.284Z,69.95
2022-12-23T07:07:00.571Z,52.03
2022-12-23T07:09:29.360Z,54.45
2022-12-23T07:11:58.185Z,61.72
2022-12-23T07:14:27.021Z,59.88
2022-12-23T07:16:58.596Z,55.92
2022-12-23T07:19:27.659Z,47.28
2022-12-23T07:21:57.912Z,52.97
2022-12-23T07:24:26.848Z,47.65
2022-12-23T07:26:59.090Z,64.72
2022-12-23T07:29:33.643Z,69.93
2022-12-23T07:32:06.608Z,69.65
2022-12-23T07:34:38.447Z,70.60
2022-12-23T07:37:08.801Z,60.47
2022-12-23T07:39:43.124Z,59.50
2022-12-23T07:42:43.998Z,61.40
2022-12-23T07:45:13.111Z,66.20
2022-12-23T07:47:41.914Z,79.32
2022-12-23T07:50:14.032Z,51.67
2022-12-23T07:52:46.823Z,67.68
2022-12-23T07:55:18.865Z,58.07
2022-12-23T07:57:49.940Z,65.50
2022-12-23T08:02:49.084Z,50.88
2022-12-23T08:05:21.693Z,34.47
2022-12-23T08:07:55.051Z,81.13
2022-12-23T08:10:29.807Z,64.38
2022-12-23T08:13:04.642Z,58.83
2022-12-23T08:15:36.645Z,65.22
2022-12-23T08:18:08.339Z,59.95
2022-12-23T08:20:37.087Z,62.80
2022-12-23T08:23:10.301Z,32.75
2022-12-23T08:25:39.343Z,48.03
2022-12-23T08:28:10.888Z,55.10
2022-12-23T08:30:39.843Z,47.17
2022-12-23T08:33:14.065Z,41.83
2022-12-23T08:35:43.101Z,42.67
2022-12-23T08:38:16.024Z,40.45
2022-12-23T08:40:44.910Z,42.67
2022-12-23T08:43:14.382Z,40.25
2022-12-23T08:45:43.543Z,33.88
2022-12-23T08:48:12.369Z,37.92
2022-12-23T08:50:45.643Z,30.90
2022-12-23T08:53:16.982Z,36.53
2022-12-23T08:55:47.848Z,35.92
2022-12-23T08:58:20.381Z,33.45
2022-12-23T09:00:52.132Z,34.13
2022-12-23T09:03:21.151Z,34.65
2022-12-23T09:05:52.528Z,34.28
2022-12-23T09:08:28.768Z,29.40
2022-12-23T09:10:57.825Z,36.03
2022-12-23T09:13:34.807Z,29.30
2022-12-23T09:16:04.466Z,21.27
2022-12-23T09:18:36.469Z,31.83
2022-12-23T09:21:07.686Z,26.50
2022-12-23T09:26:15.673Z,24.27
2022-12-23T09:28:44.641Z,24.10
2022-12-23T09:31:17.068Z,29.55
2022-12-23T09:33:49.409Z,22.90
2022-12-23T09:36:21.536Z,24.23
2022-12-23T09:38:58.212Z,22.63
2022-12-23T09:41:50.412Z,22.63
2022-12-23T09:44:37.137Z,27.15
2022-12-23T09:47:10.164Z,25.20
2022-12-23T09:49:47.641Z,25.65
2022-12-23T09:52:24.083Z,25.20
2022-12-23T09:54:56.974Z,19.25
2022-12-23T09:57:32.141Z,19.38
2022-12-23T10:00:11.187Z,22.83
2022-12-23T10:03:10.687Z,21.55
2022-12-23T10:05:49.287Z,23.15
2022-12-23T10:08:26.021Z,20.02
2022-12-23T10:11:03.486Z,17.77
2022-12-23T10:13:39.167Z,21.38
2022-12-23T10:16:13.868Z,18.70
2022-12-23T10:18:53.913Z,19.63
2022-12-23T10:21:33.764Z,19.40
2022-12-23T10:24:19.241Z,17.58
2022-12-23T10:26:56.584Z,19.13
2022-12-23T10:29:32.244Z,16.90
2022-12-23T10:32:17.186Z,20.25
2022-12-23T10:34:57.324Z,18.52
2022-12-23T10:37:30.922Z,17.85
2022-12-23T10:40:11.527Z,20.08
2022-12-23T10:42:47.483Z,21.98
2022-12-23T10:45:45.676Z,16.52
2022-12-23T10:48:29.922Z,19.55
2022-12-23T10:51:05.491Z,17.55
2022-12-23T10:53:40.591Z,16.02
2022-12-23T10:56:15.709Z,16.65
2022-12-23T10:58:48.834Z,16.20
2022-12-23T11:01:27.281Z,16.40
2022-12-23T11:04:04.548Z,14.30
2022-12-23T11:06:41.984Z,15.40
2022-12-23T11:09:17.968Z,12.50
2022-12-23T11:12:01.468Z,16.02
2022-12-23T11:14:40.263Z,12.48
2022-12-23T11:17:23.115Z,15.48
2022-12-23T11:20:16.195Z,13.15
2022-12-23T11:22:54.159Z,15.07
2022-12-23T11:25:36.120Z,15.48
2022-12-23T11:28:17.432Z,13.95
2022-12-23T11:30:57.032Z,19.52
2022-12-23T11:33:29.039Z,14.32
2022-12-23T11:36:08.090Z,15.38
2022-12-23T11:38:51.663Z,14.77
2022-12-23T11:41:23.911Z,16.35
2022-12-23T11:44:00.047Z,13.35
2022-12-23T11:46:33.317Z,16.95
2022-12-23T11:49:15.526Z,14.93
2022-12-23T11:51:45.148Z,14.68
2022-12-23T11:54:21.138Z,17.67
2022-12-23T11:56:52.486Z,16.65
2022-12-23T11:59:32.947Z,17.40
2022-12-23T12:02:07.715Z,14.07
2022-12-23T12:04:41.812Z,16.55
2022-12-23T12:07:16.391Z,15.27
2022-12-23T12:09:48.545Z,18.77
2022-12-23T12:12:21.327Z,16.63
2022-12-23T12:14:52.921Z,24.98
2022-12-23T12:17:26.866Z,18.15
2022-12-23T12:20:06.013Z,18.35
2022-12-23T12:22:40.393Z,21.02
2022-12-23T12:25:18.408Z,23.23
2022-12-23T12:27:54.234Z,21.25
2022-12-23T12:30:24.387Z,27.23
2022-12-23T12:33:05.517Z,25.50
2022-12-23T12:35:43.287Z,22.63
2022-12-23T12:38:19.847Z,25.50
2022-12-23T12:40:52.590Z,27.73
2022-12-23T12:43:28.857Z,28.70
2022-12-23T12:46:13.324Z,27.10
2022-12-23T12:48:53.216Z,31.58
2022-12-23T12:51:27.836Z,27.85
2022-12-23T12:54:07.642Z,32.65
2022-12-23T12:56:42.677Z,30.08
2022-12-23T12:59:18.244Z,31.30
2022-12-23T13:02:14.081Z,33.45
2022-12-23T13:05:09.474Z,33.38
2022-12-23T13:07:54.775Z,27.45
2022-12-23T13:10:37.072Z,30.40
2022-12-23T13:13:20.786Z,33.75
2022-12-23T13:15:54.959Z,34.42
2022-12-23T13:18:35.721Z,35.17
2022-12-23T13:21:14.818Z,38.72
2022-12-23T13:23:51.255Z,31.27
2022-12-23T13:26:32.065Z,35.08
2022-12-23T13:29:26.987Z,31.20
2022-12-23T13:32:04.029Z,37.58
2022-12-23T13:34:46.822Z,29.15
2022-12-23T13:37:28.013Z,28.35
2022-12-23T13:40:04.944Z,31.38
2022-12-23T13:42:39.624Z,38.63
2022-12-23T13:45:16.093Z,32.85
2022-12-23T13:47:53.014Z,29.73
2022-12-23T13:50:28.224Z,26.67
2022-12-23T13:53:21.032Z,30.35
2022-12-23T13:56:01.713Z,25.35
2022-12-23T13:58:32.504Z,29.08
2022-12-23T14:01:33.248Z,26.63
2022-12-23T14:04:34.454Z,24.33
2022-12-23T14:09:41.060Z,24.77
2022-12-23T14:12:17.874Z,24.48
2022-12-23T14:15:03.423Z,27.75
2022-12-23T14:17:43.513Z,26.85
2022-12-23T14:20:28.143Z,29.75
2022-12-23T14:23:07.896Z,25.02
2022-12-23T14:25:56.906Z,23.58
2022-12-23T14:28:46.548Z,27.98
2022-12-23T14:31:32.103Z,23.60
2022-12-23T14:34:24.405Z,27.30
2022-12-23T14:37:27.488Z,26.85
2022-12-23T14:39:59.713Z,24.23
2022-12-23T14:42:43.186Z,26.60
2022-12-23T14:45:30.488Z,31.60
2022-12-23T14:47:59.264Z,26.02
2022-12-23T14:50:42.843Z,23.25
2022-12-23T14:53:26.550Z,21.00
2022-12-23T14:56:14.470Z,25.27
2022-12-23T14:59:01.284Z,22.95
2022-12-23T15:01:38.295Z,23.73
2022-12-23T15:04:13.826Z,25.98
2022-12-23T15:06:44.975Z,25.08
2022-12-23T15:09:23.959Z,23.63
2022-12-23T15:11:54.852Z,19.65
2022-12-23T15:14:33.122Z,20.92
2022-12-23T15:17:15.473Z,24.92
2022-12-23T15:19:48.399Z,22.13
2022-12-23T15:22:24.158Z,24.80
2022-12-23T15:24:57.013Z,20.08
2022-12-23T15:27:27.890Z,23.90
2022-12-23T15:29:59.749Z,17.55
2022-12-23T15:32:30.748Z,19.73
2022-12-23T15:35:05.303Z,19.75
2022-12-23T15:37:38.122Z,17.42
2022-12-23T15:40:15.360Z,16.58
2022-12-23T15:42:49.376Z,20.10
2022-12-23T15:45:37.761Z,20.35
2022-12-23T15:48:23.241Z,17.70
2022-12-23T15:50:57.671Z,18.88
2022-12-23T15:53:32.633Z,14.98
2022-12-23T15:56:04.346Z,21.95
2022-12-23T15:58:35.388Z,16.92
2022-12-23T16:01:05.988Z,16.83
2022-12-23T16:03:36.864Z,15.70
2022-12-23T16:06:11.221Z,17.65
2022-12-23T16:08:40.368Z,18.05
2022-12-23T16:11:16.130Z,16.50
2022-12-23T16:13:58.813Z,21.95
2022-12-23T16:16:41.746Z,16.63
2022-12-23T16:19:38.846Z,19.25
2022-12-23T16:22:13.836Z,18.05
2022-12-23T16:24:47.697Z,18.02
2022-12-23T16:27:19.512Z,18.67
2022-12-23T16:29:49.909Z,16.65
2022-12-23T16:32:21.723Z,19.25
2022-12-23T16:34:52.696Z,16.02
2022-12-23T16:37:21.962Z,17.45
2022-12-23T16:39:50.488Z,19.10
2022-12-23T16:42:20.500Z,15.60
2022-12-23T16:44:49.171Z,17.27
2022-12-23T16:47:20.833Z,13.52
2022-12-23T16:49:50.554Z,18.92
2022-12-23T16:52:19.300Z,16.58
2022-12-23T16:54:48.005Z,14.70
2022-12-23T16:57:16.608Z,16.17
2022-12-23T16:59:45.338Z,17.15
2022-12-23T17:02:22.872Z,16.48
2022-12-23T17:04:51.553Z,17.95
2022-12-23T17:07:20.303Z,19.90
2022-12-23T17:09:48.897Z,19.92
2022-12-23T17:12:17.573Z,16.42
2022-12-23T17:14:46.177Z,19.67
2022-12-23T17:17:16.054Z,16.88
2022-12-23T17:19:46.093Z,20.00
2022-12-23T17:22:15.009Z,21.35
2022-12-23T17:24:43.989Z,17.95
2022-12-23T17:27:15.251Z,18.02
2022-12-23T17:29:45.669Z,17.25
2022-12-23T17:32:16.828Z,16.77
2022-12-23T17:34:47.972Z,17.15
2022-12-23T17:37:19.992Z,16.95
2022-12-23T17:39:49.294Z,14.63
2022-12-23T17:42:25.613Z,18.08
2022-12-23T17:44:54.923Z,16.55
2022-12-23T17:47:24.117Z,14.77
2022-12-23T17:49:54.367Z,16.40
2022-12-23T17:52:25.719Z,14.17
2022-12-23T17:54:54.335Z,18.30
2022-12-23T17:57:24.710Z,17.92
2022-12-23T17:59:55.428Z,14.77
2022-12-23T18:02:26.556Z,13.77
2022-12-23T18:04:56.861Z,15.27
2022-12-23T18:07:25.425Z,13.80
2022-12-23T18:09:55.045Z,13.77
2022-12-23T18:12:30.987Z,15.95
2022-12-23T18:14:59.826Z,15.77
2022-12-23T18:17:28.455Z,14.13
2022-12-23T18:19:59.745Z,15.90
2022-12-23T18:22:28.583Z,13.45
2022-12-23T18:24:59.497Z,14.40
2022-12-23T18:27:28.898Z,12.45
2022-12-23T18:29:57.509Z,12.50
2022-12-23T18:32:28.430Z,19.10
2022-12-23T18:34:58.591Z,13.02
2022-12-23T18:37:27.690Z,12.90
2022-12-23T18:39:56.549Z,12.77
2022-12-23T18:42:25.699Z,10.05
2022-12-23T18:44:54.326Z,12.25
2022-12-23T18:47:22.963Z,9.55
2022-12-23T18:49:51.466Z,9.45
2022-12-23T18:52:22.005Z,8.85
2022-12-23T18:54:53.053Z,8.65
2022-12-23T18:57:21.702Z,11.75
2022-12-23T18:59:50.317Z,9.52
2022-12-23T19:02:19.049Z,11.85
2022-12-23T19:04:47.749Z,9.05
2022-12-23T19:07:16.629Z,9.35
2022-12-23T19:09:46.772Z,7.85
2022-12-23T19:12:15.699Z,9.23
2022-12-23T19:14:46.214Z,9.55
2022-12-23T19:17:15.767Z,10.40
2022-12-23T19:19:47.449Z,11.40
2022-12-23T19:22:16.457Z,8.75
2022-12-23T19:25:03.963Z,9.13
2022-12-23T19:27:34.599Z,8.77
2022-12-23T19:30:11.648Z,8.00
2022-12-23T19:32:41.954Z,6.30
2022-12-23T19:35:14.723Z,5.07
2022-12-23T19:37:44.138Z,7.30
2022-12-23T19:40:14.502Z,5.35
2022-12-23T19:42:43.256Z,7.50
2022-12-23T19:45:13.141Z,6.70
2022-12-23T19:47:41.740Z,6.72
2022-12-23T19:50:13.091Z,6.05
2022-12-23T19:52:44.247Z,6.18
2022-12-23T19:57:45.039Z,4.93
2022-12-23T20:00:16.115Z,5.20
2022-12-23T20:05:13.372Z,5.03
2022-12-23T20:07:41.930Z,5.97
2022-12-23T20:10:11.412Z,5.10
2022-12-23T20:12:42.132Z,5.18
2022-12-23T20:15:11.420Z,4.30
2022-12-23T20:17:40.143Z,4.40
2022-12-23T20:20:10.149Z,4.85
2022-12-23T20:22:38.874Z,3.15
2022-12-23T20:25:08.540Z,5.40
2022-12-23T20:27:38.956Z,3.03
2022-12-23T20:30:13.240Z,5.30
2022-12-23T20:32:45.037Z,4.32
2022-12-23T20:35:14.096Z,5.55
2022-12-23T20:37:43.872Z,3.63
2022-12-23T20:40:15.169Z,4.38
2022-12-23T20:42:45.377Z,4.35
2022-12-23T20:45:15.713Z,2.80
2022-12-23T20:47:44.474Z,5.10
2022-12-23T20:50:13.531Z,4.28
2022-12-23T20:52:42.368Z,2.85
2022-12-23T20:55:11.607Z,3.20
2022-12-23T20:57:40.504Z,2.25
2022-12-23T21:00:10.309Z,2.20
2022-12-23T21:02:41.385Z,4.00
2022-12-23T21:07:38.965Z,2.03
2022-12-23T21:10:09.441Z,1.92
2022-12-23T21:12:38.149Z,2.05
2022-12-23T21:15:07.487Z,1.92
2022-12-23T21:17:36.207Z,1.58
2022-12-23T21:20:10.779Z,1.55
2022-12-23T21:22:39.728Z,0.82
2022-12-23T21:25:09.709Z,2.47
2022-12-23T21:27:38.385Z,1.50
2022-12-23T21:30:09.215Z,0.65
2022-12-23T21:32:37.812Z,1.30
2022-12-23T21:35:09.034Z,0.57
2022-12-23T21:37:37.676Z,2.03
2022-12-23T21:40:07.790Z,1.38
2022-12-23T21:42:39.431Z,1.73
2022-12-23T21:45:11.513Z,1.48
2022-12-23T21:47:40.290Z,2.97
2022-12-23T21:50:13.687Z,1.00
2022-12-23T21:52:45.127Z,1.33
2022-12-23T21:55:16.182Z,1.05
2022-12-23T21:57:45.012Z,1.92
2022-12-23T22:00:14.089Z,0.52
2022-12-23T22:02:42.741Z,0.50
2022-12-23T22:05:12.927Z,2.97
2022-12-23T22:07:41.663Z,2.17
2022-12-23T22:10:11.022Z,1.70
2022-12-23T22:12:40.058Z,1.10
2022-12-23T22:15:11.777Z,0.40
2022-12-23T22:17:40.709Z,1.73
2022-12-23T22:20:11.505Z,1.15
2022-12-23T22:22:41.852Z,0.45
2022-12-23T22:25:11.420Z,1.65
2022-12-23T22:27:44.179Z,0.90
2022-12-23T22:30:13.166Z,3.05
2022-12-23T22:32:44.728Z,1.60
2022-12-23T22:35:13.684Z,1.75
2022-12-23T22:37:43.983Z,1.20
2022-12-23T22:40:13.323Z,3.42
2022-12-23T22:42:42.006Z,1.48
2022-12-23T22:45:13.591Z,1.80
2022-12-23T22:47:42.727Z,1.90
2022-12-23T22:50:14.485Z,1.08
2022-12-23T22:52:44.606Z,2.72
2022-12-23T22:55:13.753Z,2.13
2022-12-23T22:57:42.565Z,3.42
2022-12-23T23:00:13.163Z,2.90
2022-12-23T23:02:42.072Z,0.40
2022-12-23T23:05:13.295Z,1.33
2022-12-23T23:07:44.090Z,2.30
2022-12-23T23:10:13.229Z,1.65
2022-12-23T23:12:42.082Z,0.98
2022-12-23T23:15:11.783Z,0.50
2022-12-23T23:17:40.495Z,0.43
2022-12-23T23:20:10.500Z,1.15
2022-12-23T23:22:39.244Z,0.90
2022-12-23T23:25:26.960Z,1.65
2022-12-23T23:27:55.588Z,1.05
2022-12-23T23:30:27.435Z,3.50
2022-12-23T23:32:56.163Z,2.35
2022-12-23T23:35:24.808Z,0.25
2022-12-23T23:37:53.597Z,1.90
2022-12-23T23:40:23.791Z,1.38
2022-12-23T23:42:56.133Z,0.65
2022-12-23T23:45:24.775Z,0.65
2022-12-23T23:47:57.421Z,0.63
2022-12-23T23:50:28.930Z,1.08
2022-12-23T23:53:03.613Z,1.05
2022-12-23T23:55:34.134Z,0.80
2022-12-23T23:58:03.143Z,1.25
